sensor_id;sensor_type;location;lat;lon;timestamp;P1;P2;P0
55304;PMS7003;65692;51.378;19.824;2023-03-31T00:31:24;26.33;22.00;15.67
55304;PMS7003;65692;51.378;19.824;2023-03-31T01:08:27;20.75;16.50;12.50
55304;PMS7003;65692;51.378;19.824;2023-03-31T01:11:13;24.25;15.75;11.25
55304;PMS7003;65692;51.378;19.824;2023-03-31T01:43:25;14.25;13.00;9.00
55304;PMS7003;65692;51.378;19.824;2023-03-31T02:31:04;15.75;14.25;10.50
55304;PMS7003;65692;51.378;19.824;2023-03-31T02:33:51;12.50;12.25;9.00
55304;PMS7003;65692;51.378;19.824;2023-03-31T02:36:23;17.75;15.25;11.50
55304;PMS7003;65692;51.378;19.824;2023-03-31T03:41:31;10.75;9.75;7.50
55304;PMS7003;65692;51.378;19.824;2023-03-31T03:47:25;11.50;10.00;7.75
55304;PMS7003;65692;51.378;19.824;2023-03-31T03:49:52;14.75;9.50;7.00
55304;PMS7003;65692;51.378;19.824;2023-03-31T04:03:53;16.25;13.50;9.75
55304;PMS7003;65692;51.378;19.824;2023-03-31T04:06:51;13.75;12.00;10.25
55304;PMS7003;65692;51.378;19.824;2023-03-31T04:09:50;9.25;8.75;7.25
55304;PMS7003;65692;51.378;19.824;2023-03-31T04:12:37;10.75;9.75;7.00
55304;PMS7003;65692;51.378;19.824;2023-03-31T04:31:30;13.00;11.00;7.75
55304;PMS7003;65692;51.378;19.824;2023-03-31T04:51:17;11.50;7.50;7.00
55304;PMS7003;65692;51.378;19.824;2023-03-31T06:24:13;13.50;10.25;8.00
55304;PMS7003;65692;51.378;19.824;2023-03-31T06:26:56;14.00;9.75;8.75
55304;PMS7003;65692;51.378;19.824;2023-03-31T06:29:26;11.25;9.75;7.75
55304;PMS7003;65692;51.378;19.824;2023-03-31T06:37:45;9.00;8.75;7.75
55304;PMS7003;65692;51.378;19.824;2023-03-31T06:48:13;7.25;5.00;3.00
55304;PMS7003;65692;51.378;19.824;2023-03-31T06:50:45;14.00;11.50;8.00
55304;PMS7003;65692;51.378;19.824;2023-03-31T06:55:57;12.50;12.25;8.75
55304;PMS7003;65692;51.378;19.824;2023-03-31T06:58:38;14.75;11.25;8.00
55304;PMS7003;65692;51.378;19.824;2023-03-31T07:01:10;14.00;12.75;10.00
55304;PMS7003;65692;51.378;19.824;2023-03-31T07:03:42;12.25;10.50;8.50
55304;PMS7003;65692;51.378;19.824;2023-03-31T07:06:09;11.75;11.25;9.50
55304;PMS7003;65692;51.378;19.824;2023-03-31T07:08:42;13.25;10.50;8.00
55304;PMS7003;65692;51.378;19.824;2023-03-31T07:11:14;11.00;9.50;8.00
55304;PMS7003;65692;51.378;19.824;2023-03-31T07:13:43;11.00;10.50;8.25
55304;PMS7003;65692;51.378;19.824;2023-03-31T07:16:09;15.25;10.00;9.00
55304;PMS7003;65692;51.378;19.824;2023-03-31T07:18:45;10.00;9.75;8.00
55304;PMS7003;65692;51.378;19.824;2023-03-31T07:21:13;16.00;10.00;8.00
55304;PMS7003;65692;51.378;19.824;2023-03-31T07:23:41;10.25;9.75;7.25
55304;PMS7003;65692;51.378;19.824;2023-03-31T07:26:11;12.75;11.00;9.50
55304;PMS7003;65692;51.378;19.824;2023-03-31T07:28:40;11.25;10.25;9.00
55304;PMS7003;65692;51.378;19.824;2023-03-31T07:31:12;11.50;10.75;9.00
55304;PMS7003;65692;51.378;19.824;2023-03-31T07:33:41;9.25;9.25;8.00
55304;PMS7003;65692;51.378;19.824;2023-03-31T07:36:10;11.00;11.00;9.25
55304;PMS7003;65692;51.378;19.824;2023-03-31T07:38:41;14.75;12.00;8.75
55304;PMS7003;65692;51.378;19.824;2023-03-31T07:41:17;11.00;10.00;7.75
55304;PMS7003;65692;51.378;19.824;2023-03-31T07:43:49;8.75;8.75;7.50
55304;PMS7003;65692;51.378;19.824;2023-03-31T07:46:19;11.00;11.00;10.00
55304;PMS7003;65692;51.378;19.824;2023-03-31T07:48:47;13.50;13.50;12.00
55304;PMS7003;65692;51.378;19.824;2023-03-31T07:51:16;15.25;12.00;8.75
55304;PMS7003;65692;51.378;19.824;2023-03-31T07:53:45;19.25;13.00;9.00
55304;PMS7003;65692;51.378;19.824;2023-03-31T07:56:12;14.75;13.25;11.00
55304;PMS7003;65692;51.378;19.824;2023-03-31T07:58:39;8.25;6.50;4.50
55304;PMS7003;65692;51.378;19.824;2023-03-31T08:01:06;13.00;12.50;8.75
55304;PMS7003;65692;51.378;19.824;2023-03-31T08:03:45;13.25;12.50;9.50
55304;PMS7003;65692;51.378;19.824;2023-03-31T08:06:17;14.00;12.25;9.00
55304;PMS7003;65692;51.378;19.824;2023-03-31T08:08:45;13.00;10.00;8.00
55304;PMS7003;65692;51.378;19.824;2023-03-31T08:11:12;9.25;9.00;5.50
55304;PMS7003;65692;51.378;19.824;2023-03-31T08:13:42;10.75;9.00;7.50
55304;PMS7003;65692;51.378;19.824;2023-03-31T08:16:11;11.25;9.00;7.25
55304;PMS7003;65692;51.378;19.824;2023-03-31T08:18:38;10.75;8.75;6.00
55304;PMS7003;65692;51.378;19.824;2023-03-31T08:21:06;8.50;7.25;6.00
55304;PMS7003;65692;51.378;19.824;2023-03-31T08:23:48;15.25;10.00;7.75
55304;PMS7003;65692;51.378;19.824;2023-03-31T08:26:34;12.50;9.50;8.00
55304;PMS7003;65692;51.378;19.824;2023-03-31T08:29:06;13.00;9.00;7.50
55304;PMS7003;65692;51.378;19.824;2023-03-31T08:31:44;9.25;8.00;7.00
55304;PMS7003;65692;51.378;19.824;2023-03-31T08:34:26;9.00;8.50;6.75
55304;PMS7003;65692;51.378;19.824;2023-03-31T08:36:57;11.50;4.25;3.00
55304;PMS7003;65692;51.378;19.824;2023-03-31T08:39:33;11.50;10.25;9.00
55304;PMS7003;65692;51.378;19.824;2023-03-31T08:42:20;12.00;12.00;8.25
55304;PMS7003;65692;51.378;19.824;2023-03-31T08:47:58;9.50;8.75;8.00
55304;PMS7003;65692;51.378;19.824;2023-03-31T08:50:49;15.50;11.75;8.75
55304;PMS7003;65692;51.378;19.824;2023-03-31T08:53:28;10.25;9.25;7.25
55304;PMS7003;65692;51.378;19.824;2023-03-31T08:55:58;14.00;12.00;8.33
55304;PMS7003;65692;51.378;19.824;2023-03-31T08:58:42;13.50;8.00;6.50
55304;PMS7003;65692;51.378;19.824;2023-03-31T09:04:06;7.00;7.00;5.00
55304;PMS7003;65692;51.378;19.824;2023-03-31T09:06:41;10.50;10.00;7.00
55304;PMS7003;65692;51.378;19.824;2023-03-31T09:09:24;8.25;8.00;7.50
55304;PMS7003;65692;51.378;19.824;2023-03-31T09:11:55;9.00;9.00;7.25
55304;PMS7003;65692;51.378;19.824;2023-03-31T09:17:15;8.25;6.25;5.75
55304;PMS7003;65692;51.378;19.824;2023-03-31T09:19:45;6.25;6.00;5.00
55304;PMS7003;65692;51.378;19.824;2023-03-31T09:22:19;8.75;7.00;5.50
55304;PMS7003;65692;51.378;19.824;2023-03-31T09:24:55;7.00;5.00;4.75
55304;PMS7003;65692;51.378;19.824;2023-03-31T09:27:24;8.50;6.25;5.25
55304;PMS7003;65692;51.378;19.824;2023-03-31T09:32:38;11.50;5.50;4.50
55304;PMS7003;65692;51.378;19.824;2023-03-31T09:35:23;5.25;5.00;3.75
55304;PMS7003;65692;51.378;19.824;2023-03-31T09:37:51;10.50;9.25;7.25
55304;PMS7003;65692;51.378;19.824;2023-03-31T09:40:22;4.75;4.25;3.25
55304;PMS7003;65692;51.378;19.824;2023-03-31T09:42:50;8.00;6.00;5.00
55304;PMS7003;65692;51.378;19.824;2023-03-31T09:45:19;10.00;6.00;5.00
55304;PMS7003;65692;51.378;19.824;2023-03-31T09:47:49;5.50;3.75;3.00
55304;PMS7003;65692;51.378;19.824;2023-03-31T09:50:16;3.75;3.75;3.25
55304;PMS7003;65692;51.378;19.824;2023-03-31T09:52:45;5.00;3.75;3.50
55304;PMS7003;65692;51.378;19.824;2023-03-31T09:58:06;8.25;5.00;4.75
55304;PMS7003;65692;51.378;19.824;2023-03-31T10:00:33;5.00;4.00;3.75
55304;PMS7003;65692;51.378;19.824;2023-03-31T10:03:01;5.00;5.00;4.00
55304;PMS7003;65692;51.378;19.824;2023-03-31T10:05:34;4.00;4.00;4.00
55304;PMS7003;65692;51.378;19.824;2023-03-31T10:10:45;5.75;5.25;4.25
55304;PMS7003;65692;51.378;19.824;2023-03-31T10:13:14;5.50;5.25;4.25
55304;PMS7003;65692;51.378;19.824;2023-03-31T10:15:41;6.00;5.50;4.00
55304;PMS7003;65692;51.378;19.824;2023-03-31T10:18:12;8.25;7.25;6.25
55304;PMS7003;65692;51.378;19.824;2023-03-31T10:20:41;5.00;5.00;4.25
55304;PMS7003;65692;51.378;19.824;2023-03-31T10:25:42;6.75;6.75;5.75
55304;PMS7003;65692;51.378;19.824;2023-03-31T10:28:10;4.00;4.00;3.25
55304;PMS7003;65692;51.378;19.824;2023-03-31T10:30:38;5.25;5.25;4.00
55304;PMS7003;65692;51.378;19.824;2023-03-31T10:33:06;4.00;4.00;3.00
55304;PMS7003;65692;51.378;19.824;2023-03-31T10:35:48;3.00;3.00;3.00
55304;PMS7003;65692;51.378;19.824;2023-03-31T10:38:20;5.00;5.00;4.00
55304;PMS7003;65692;51.378;19.824;2023-03-31T10:40:49;5.25;4.00;3.00
55304;PMS7003;65692;51.378;19.824;2023-03-31T10:43:18;5.00;5.00;4.75
55304;PMS7003;65692;51.378;19.824;2023-03-31T10:45:50;5.50;5.50;4.50
55304;PMS7003;65692;51.378;19.824;2023-03-31T10:50:49;5.50;5.25;4.25
55304;PMS7003;65692;51.378;19.824;2023-03-31T10:53:17;2.75;1.00;1.00
55304;PMS7003;65692;51.378;19.824;2023-03-31T11:06:38;5.25;4.75;3.50
55304;PMS7003;65692;51.378;19.824;2023-03-31T11:14:43;3.00;3.00;3.00
55304;PMS7003;65692;51.378;19.824;2023-03-31T11:22:59;5.75;3.00;3.00
55304;PMS7003;65692;51.378;19.824;2023-03-31T11:25:19;5.00;4.00;3.00
55304;PMS7003;65692;51.378;19.824;2023-03-31T11:28:10;5.25;3.50;3.00
55304;PMS7003;65692;51.378;19.824;2023-03-31T11:30:42;1.00;0.00;0.00
55304;PMS7003;65692;51.378;19.824;2023-03-31T11:33:17;6.25;5.00;4.00
55304;PMS7003;65692;51.378;19.824;2023-03-31T11:46:07;4.00;4.00;3.00
55304;PMS7003;65692;51.378;19.824;2023-03-31T11:48:46;4.00;3.75;3.00
55304;PMS7003;65692;51.378;19.824;2023-03-31T11:51:19;6.25;4.00;3.75
55304;PMS7003;65692;51.378;19.824;2023-03-31T11:53:47;6.75;5.25;4.75
55304;PMS7003;65692;51.378;19.824;2023-03-31T11:56:15;6.00;5.00;4.25
55304;PMS7003;65692;51.378;19.824;2023-03-31T11:58:44;3.00;3.00;3.00
55304;PMS7003;65692;51.378;19.824;2023-03-31T12:01:16;4.00;4.00;3.00
55304;PMS7003;65692;51.378;19.824;2023-03-31T12:03:50;2.50;2.00;2.00
55304;PMS7003;65692;51.378;19.824;2023-03-31T12:06:18;5.00;5.00;4.00
55304;PMS7003;65692;51.378;19.824;2023-03-31T12:11:44;8.50;5.50;4.25
55304;PMS7003;65692;51.378;19.824;2023-03-31T12:14:30;4.75;4.25;3.50
55304;PMS7003;65692;51.378;19.824;2023-03-31T12:17:12;5.25;4.25;4.00
55304;PMS7003;65692;51.378;19.824;2023-03-31T12:22:09;6.75;5.00;5.00
55304;PMS7003;65692;51.378;19.824;2023-03-31T12:24:37;5.00;5.00;4.00
55304;PMS7003;65692;51.378;19.824;2023-03-31T12:27:06;8.50;6.75;6.00
55304;PMS7003;65692;51.378;19.824;2023-03-31T12:32:06;2.50;2.50;1.75
55304;PMS7003;65692;51.378;19.824;2023-03-31T12:34:34;7.75;7.00;6.00
55304;PMS7003;65692;51.378;19.824;2023-03-31T12:37:23;5.75;4.00;3.75
55304;PMS7003;65692;51.378;19.824;2023-03-31T12:48:12;12.75;10.25;6.75
55304;PMS7003;65692;51.378;19.824;2023-03-31T12:50:59;4.00;3.50;3.25
55304;PMS7003;65692;51.378;19.824;2023-03-31T12:56:02;5.00;5.00;4.25
55304;PMS7003;65692;51.378;19.824;2023-03-31T13:01:09;4.00;3.00;2.00
55304;PMS7003;65692;51.378;19.824;2023-03-31T13:06:51;5.00;5.00;4.75
55304;PMS7003;65692;51.378;19.824;2023-03-31T13:16:30;5.25;4.00;3.75
55304;PMS7003;65692;51.378;19.824;2023-03-31T13:18:57;5.00;5.00;4.00
55304;PMS7003;65692;51.378;19.824;2023-03-31T13:21:24;4.00;4.00;3.00
55304;PMS7003;65692;51.378;19.824;2023-03-31T13:23:52;5.00;4.00;3.00
55304;PMS7003;65692;51.378;19.824;2023-03-31T13:26:53;4.00;3.00;3.00
55304;PMS7003;65692;51.378;19.824;2023-03-31T13:34:33;23.25;20.50;14.75
55304;PMS7003;65692;51.378;19.824;2023-03-31T13:39:43;7.25;7.00;6.00
55304;PMS7003;65692;51.378;19.824;2023-03-31T13:47:36;4.75;4.75;4.00
55304;PMS7003;65692;51.378;19.824;2023-03-31T13:52:55;5.00;4.00;3.75
55304;PMS7003;65692;51.378;19.824;2023-03-31T14:06:10;9.00;7.75;7.00
55304;PMS7003;65692;51.378;19.824;2023-03-31T14:14:10;13.00;8.50;7.00
55304;PMS7003;65692;51.378;19.824;2023-03-31T14:16:38;6.75;5.00;3.75
55304;PMS7003;65692;51.378;19.824;2023-03-31T14:21:42;5.75;4.00;4.00
55304;PMS7003;65692;51.378;19.824;2023-03-31T14:24:18;6.50;5.25;3.75
55304;PMS7003;65692;51.378;19.824;2023-03-31T14:26:51;7.25;7.25;6.00
55304;PMS7003;65692;51.378;19.824;2023-03-31T14:32:10;4.50;4.50;3.75
55304;PMS7003;65692;51.378;19.824;2023-03-31T14:37:11;6.50;6.00;5.00
55304;PMS7003;65692;51.378;19.824;2023-03-31T14:39:41;4.00;3.50;3.00
55304;PMS7003;65692;51.378;19.824;2023-03-31T14:42:15;6.50;5.25;4.25
55304;PMS7003;65692;51.378;19.824;2023-03-31T14:44:43;10.50;9.50;6.00
55304;PMS7003;65692;51.378;19.824;2023-03-31T14:49:40;6.00;6.00;5.00
55304;PMS7003;65692;51.378;19.824;2023-03-31T14:52:14;11.25;11.00;8.00
55304;PMS7003;65692;51.378;19.824;2023-03-31T14:54:43;20.75;19.50;14.25
55304;PMS7003;65692;51.378;19.824;2023-03-31T14:57:16;26.50;22.25;17.50
55304;PMS7003;65692;51.378;19.824;2023-03-31T14:59:44;12.25;9.50;7.75
55304;PMS7003;65692;51.378;19.824;2023-03-31T15:02:14;8.75;4.50;4.00
55304;PMS7003;65692;51.378;19.824;2023-03-31T15:04:42;2.00;2.00;2.00
55304;PMS7003;65692;51.378;19.824;2023-03-31T15:07:11;2.00;2.00;2.00
55304;PMS7003;65692;51.378;19.824;2023-03-31T15:09:38;2.50;2.00;2.00
55304;PMS7003;65692;51.378;19.824;2023-03-31T15:12:07;3.00;1.75;1.00
55304;PMS7003;65692;51.378;19.824;2023-03-31T15:14:39;2.00;0.75;0.25
55304;PMS7003;65692;51.378;19.824;2023-03-31T15:17:15;3.00;3.00;2.00
55304;PMS7003;65692;51.378;19.824;2023-03-31T15:19:43;4.50;3.00;2.75
55304;PMS7003;65692;51.378;19.824;2023-03-31T15:22:10;2.00;1.75;1.00
55304;PMS7003;65692;51.378;19.824;2023-03-31T15:24:39;2.75;2.75;2.00
55304;PMS7003;65692;51.378;19.824;2023-03-31T15:27:07;4.50;4.00;3.25
55304;PMS7003;65692;51.378;19.824;2023-03-31T15:33:04;45.00;34.67;23.00
55304;PMS7003;65692;51.378;19.824;2023-03-31T15:35:43;57.75;45.50;29.75
55304;PMS7003;65692;51.378;19.824;2023-03-31T15:38:20;44.00;37.67;24.00
55304;PMS7003;65692;51.378;19.824;2023-03-31T15:40:53;19.00;12.75;10.25
55304;PMS7003;65692;51.378;19.824;2023-03-31T15:59:52;20.50;19.00;13.75
55304;PMS7003;65692;51.378;19.824;2023-03-31T16:02:49;24.00;23.25;16.75
55304;PMS7003;65692;51.378;19.824;2023-03-31T16:06:04;18.50;17.00;14.00
55304;PMS7003;65692;51.378;19.824;2023-03-31T16:12:00;25.00;22.00;17.25
55304;PMS7003;65692;51.378;19.824;2023-03-31T16:34:52;71.75;54.25;33.75
55304;PMS7003;65692;51.378;19.824;2023-03-31T16:37:37;51.25;41.75;28.25
55304;PMS7003;65692;51.378;19.824;2023-03-31T16:40:03;55.00;42.00;28.33
55304;PMS7003;65692;51.378;19.824;2023-03-31T16:42:31;40.50;33.75;23.00
55304;PMS7003;65692;51.378;19.824;2023-03-31T16:58:09;9.50;7.25;6.00
55304;PMS7003;65692;51.378;19.824;2023-03-31T17:04:33;10.50;9.00;6.75
55304;PMS7003;65692;51.378;19.824;2023-03-31T17:15:57;13.00;10.25;8.25
55304;PMS7003;65692;51.378;19.824;2023-03-31T21:13:57;29.33;26.67;19.00
55304;PMS7003;65692;51.378;19.824;2023-03-31T21:16:24;35.67;32.00;23.33
55304;PMS7003;65692;51.378;19.824;2023-03-31T21:18:50;35.33;29.67;21.67
55304;PMS7003;65692;51.378;19.824;2023-03-31T21:21:17;29.67;23.00;17.00
55304;PMS7003;65692;51.378;19.824;2023-03-31T21:23:45;23.33;21.67;17.00
55304;PMS7003;65692;51.378;19.824;2023-03-31T21:26:12;20.50;18.00;12.00
55304;PMS7003;65692;51.378;19.824;2023-03-31T21:28:39;21.33;19.33;15.67
55304;PMS7003;65692;51.378;19.824;2023-03-31T21:31:06;21.33;18.67;13.00
55304;PMS7003;65692;51.378;19.824;2023-03-31T21:33:34;32.67;24.33;16.67
55304;PMS7003;65692;51.378;19.824;2023-03-31T21:36:03;36.33;30.00;23.00
55304;PMS7003;65692;51.378;19.824;2023-03-31T21:38:29;26.33;23.67;17.00
55304;PMS7003;65692;51.378;19.824;2023-03-31T21:40:56;20.67;19.67;16.33
55304;PMS7003;65692;51.378;19.824;2023-03-31T21:43:23;23.33;17.33;13.00
55304;PMS7003;65692;51.378;19.824;2023-03-31T21:45:50;24.00;20.00;15.50
55304;PMS7003;65692;51.378;19.824;2023-03-31T21:48:18;26.00;23.00;18.00
55304;PMS7003;65692;51.378;19.824;2023-03-31T21:50:50;26.00;23.33;17.33
55304;PMS7003;65692;51.378;19.824;2023-03-31T21:53:20;28.00;24.00;19.00
55304;PMS7003;65692;51.378;19.824;2023-03-31T21:55:47;26.00;19.00;17.00
55304;PMS7003;65692;51.378;19.824;2023-03-31T21:58:16;29.00;23.00;18.33
55304;PMS7003;65692;51.378;19.824;2023-03-31T22:00:43;39.67;29.67;19.67
55304;PMS7003;65692;51.378;19.824;2023-03-31T22:03:09;29.00;25.67;18.67
55304;PMS7003;65692;51.378;19.824;2023-03-31T22:05:53;32.33;28.33;20.33
55304;PMS7003;65692;51.378;19.824;2023-03-31T22:08:19;36.67;28.67;21.00
55304;PMS7003;65692;51.378;19.824;2023-03-31T22:10:47;42.00;33.00;22.00
55304;PMS7003;65692;51.378;19.824;2023-03-31T22:13:13;39.33;31.00;21.67
55304;PMS7003;65692;51.378;19.824;2023-03-31T22:15:39;34.67;33.00;23.67
55304;PMS7003;65692;51.378;19.824;2023-03-31T22:18:07;29.33;27.00;19.00
55304;PMS7003;65692;51.378;19.824;2023-03-31T22:20:34;31.67;24.00;19.00
55304;PMS7003;65692;51.378;19.824;2023-03-31T22:23:03;33.33;29.33;19.67
55304;PMS7003;65692;51.378;19.824;2023-03-31T22:25:29;37.33;31.33;22.33
55304;PMS7003;65692;51.378;19.824;2023-03-31T22:27:56;28.33;27.33;19.67
55304;PMS7003;65692;51.378;19.824;2023-03-31T22:30:23;35.33;30.00;19.00
55304;PMS7003;65692;51.378;19.824;2023-03-31T22:32:49;38.00;30.33;20.67
55304;PMS7003;65692;51.378;19.824;2023-03-31T22:35:15;37.25;33.75;22.75
55304;PMS7003;65692;51.378;19.824;2023-03-31T22:37:42;31.33;27.67;19.67
55304;PMS7003;65692;51.378;19.824;2023-03-31T22:40:09;38.33;26.33;19.67
55304;PMS7003;65692;51.378;19.824;2023-03-31T22:42:35;36.33;30.00;22.00
55304;PMS7003;65692;51.378;19.824;2023-03-31T22:45:02;29.00;23.00;18.33
55304;PMS7003;65692;51.378;19.824;2023-03-31T22:47:28;23.67;23.33;15.33
55304;PMS7003;65692;51.378;19.824;2023-03-31T22:49:55;23.00;21.33;16.00
55304;PMS7003;65692;51.378;19.824;2023-03-31T22:52:21;28.00;24.00;18.00
55304;PMS7003;65692;51.378;19.824;2023-03-31T22:54:48;24.67;21.67;15.33
55304;PMS7003;65692;51.378;19.824;2023-03-31T22:57:17;27.67;24.33;18.67
55304;PMS7003;65692;51.378;19.824;2023-03-31T22:59:47;21.33;18.00;14.33
55304;PMS7003;65692;51.378;19.824;2023-03-31T23:02:17;32.00;25.33;18.00
55304;PMS7003;65692;51.378;19.824;2023-03-31T23:04:44;30.50;22.00;17.00
55304;PMS7003;65692;51.378;19.824;2023-03-31T23:07:10;27.67;21.00;15.33
55304;PMS7003;65692;51.378;19.824;2023-03-31T23:09:37;20.67;20.33;17.67
55304;PMS7003;65692;51.378;19.824;2023-03-31T23:12:03;22.50;21.25;16.00
55304;PMS7003;65692;51.378;19.824;2023-03-31T23:14:30;22.00;19.67;16.67
55304;PMS7003;65692;51.378;19.824;2023-03-31T23:16:57;26.67;23.00;17.67
55304;PMS7003;65692;51.378;19.824;2023-03-31T23:19:23;28.33;26.00;20.00
55304;PMS7003;65692;51.378;19.824;2023-03-31T23:21:50;28.33;21.67;16.00
55304;PMS7003;65692;51.378;19.824;2023-03-31T23:24:17;30.00;24.00;18.00
55304;PMS7003;65692;51.378;19.824;2023-03-31T23:26:46;25.00;23.67;17.33
55304;PMS7003;65692;51.378;19.824;2023-03-31T23:29:12;33.33;22.67;17.33
55304;PMS7003;65692;51.378;19.824;2023-03-31T23:31:39;35.33;24.67;20.00
55304;PMS7003;65692;51.378;19.824;2023-03-31T23:34:06;33.00;28.00;19.00
55304;PMS7003;65692;51.378;19.824;2023-03-31T23:36:32;28.00;24.00;17.00
55304;PMS7003;65692;51.378;19.824;2023-03-31T23:38:59;31.00;25.67;18.00
55304;PMS7003;65692;51.378;19.824;2023-03-31T23:41:25;31.33;26.00;18.00
55304;PMS7003;65692;51.378;19.824;2023-03-31T23:43:52;26.00;23.33;18.33
55304;PMS7003;65692;51.378;19.824;2023-03-31T23:46:18;29.67;25.33;20.00
55304;PMS7003;65692;51.378;19.824;2023-03-31T23:48:45;33.67;28.33;19.00
55304;PMS7003;65692;51.378;19.824;2023-03-31T23:51:14;35.33;27.00;21.00
55304;PMS7003;65692;51.378;19.824;2023-03-31T23:53:41;33.67;25.33;18.67
55304;PMS7003;65692;51.378;19.824;2023-03-31T23:56:09;32.00;26.67;17.67
55304;PMS7003;65692;51.378;19.824;2023-03-31T23:58:35;30.00;27.67;21.33
